Terminal Aerodrome Forecast
Issued by NWS

Home | Current Version | Previous Version | Text Only | Print | Product List | Glossary On
Versions: 1 2 3 4 5 6 7 8 9 10 11 12 13 14 15 16 17 18 19 20 21 22 23 24 25 26 27 28 29 30 31
000
FTUS41 KBOX 250539
TAFACK
TAF
KACK 250539Z 2506/2606 19024KT 1/2SM -DZ FG OVC003 WS020/22050KT
     FM250800 19025KT 5SM BR OVC003 WS020/22050KT
     FM251100 21020G28KT 5SM +RA BR OVC003 WS020/22055KT
     FM251300 22017G29KT 3SM -RA BR OVC003 WS020/22055KT
     FM251800 26018G34KT P6SM BKN045
     FM252100 27018G34KT P6SM SCT250=

USA.gov is the U.S. government's official web portal to all federal, state and local government web resources and services.